Terminal Aerodrome Forecast
Issued by NWS Louisville, KY

Home | Current Version | Previous Version | Text Only | Print | Product List | Glossary On
Versions: 1 2 3 4 5 6 7 8 9 10 11 12 13 14 15 16
623
FTUS43 KLMK 261001 AAC
TAFLEX
TAF AMD
KLEX 261001Z 2610/2706 19005KT P6SM -SHRA BKN040
      TEMPO 2610/2612 4SM SHRA BR
     FM261200 19011KT P6SM BKN050
     FM262000 21013KT P6SM SCT050
     FM270300 16004KT P6SM SCT200=

USA.gov is the U.S. government's official web portal to all federal, state and local government web resources and services.